sensor_id;sensor_type;location;lat;lon;timestamp;temperature;humidity
32366;DHT22;18837;46.832;16.838;2023-06-22T00:00:59;27.40;77.90
32366;DHT22;18837;46.832;16.838;2023-06-22T00:03:26;27.40;78.30
32366;DHT22;18837;46.832;16.838;2023-06-22T00:05:52;27.40;78.10
32366;DHT22;18837;46.832;16.838;2023-06-22T00:08:19;27.40;78.30
32366;DHT22;18837;46.832;16.838;2023-06-22T00:10:45;27.40;78.20
32366;DHT22;18837;46.832;16.838;2023-06-22T00:13:12;27.40;78.30
32366;DHT22;18837;46.832;16.838;2023-06-22T00:15:39;27.40;78.40
32366;DHT22;18837;46.832;16.838;2023-06-22T00:18:09;27.30;78.20
32366;DHT22;18837;46.832;16.838;2023-06-22T00:20:35;27.30;78.30
32366;DHT22;18837;46.832;16.838;2023-06-22T00:23:05;27.30;78.30
32366;DHT22;18837;46.832;16.838;2023-06-22T00:25:38;27.30;78.20
32366;DHT22;18837;46.832;16.838;2023-06-22T00:28:07;27.20;78.30
32366;DHT22;18837;46.832;16.838;2023-06-22T00:30:36;27.20;78.50
32366;DHT22;18837;46.832;16.838;2023-06-22T00:33:03;27.20;78.50
32366;DHT22;18837;46.832;16.838;2023-06-22T00:35:33;27.20;78.50
32366;DHT22;18837;46.832;16.838;2023-06-22T00:38:00;27.20;78.40
32366;DHT22;18837;46.832;16.838;2023-06-22T00:40:30;27.20;78.50
32366;DHT22;18837;46.832;16.838;2023-06-22T00:42:57;27.10;78.50
32366;DHT22;18837;46.832;16.838;2023-06-22T00:45:23;27.10;78.30
32366;DHT22;18837;46.832;16.838;2023-06-22T00:47:53;27.10;78.40
32366;DHT22;18837;46.832;16.838;2023-06-22T00:50:21;27.10;78.30
32366;DHT22;18837;46.832;16.838;2023-06-22T00:52:58;27.10;78.20
32366;DHT22;18837;46.832;16.838;2023-06-22T00:55:25;27.10;78.40
32366;DHT22;18837;46.832;16.838;2023-06-22T00:57:52;27.00;78.40
32366;DHT22;18837;46.832;16.838;2023-06-22T01:00:23;27.00;78.20
32366;DHT22;18837;46.832;16.838;2023-06-22T01:02:51;27.00;78.30
32366;DHT22;18837;46.832;16.838;2023-06-22T01:05:20;27.00;79.30
32366;DHT22;18837;46.832;16.838;2023-06-22T01:13:48;26.90;78.60
32366;DHT22;18837;46.832;16.838;2023-06-22T01:16:17;26.90;78.60
32366;DHT22;18837;46.832;16.838;2023-06-22T01:18:46;26.90;78.40
32366;DHT22;18837;46.832;16.838;2023-06-22T01:21:16;26.90;78.40
32366;DHT22;18837;46.832;16.838;2023-06-22T01:26:22;26.80;78.30
32366;DHT22;18837;46.832;16.838;2023-06-22T01:28:54;26.80;78.30
32366;DHT22;18837;46.832;16.838;2023-06-22T01:31:24;26.80;78.30
32366;DHT22;18837;46.832;16.838;2023-06-22T01:33:57;26.80;78.60
32366;DHT22;18837;46.832;16.838;2023-06-22T01:36:24;26.80;78.60
32366;DHT22;18837;46.832;16.838;2023-06-22T01:38:52;26.80;78.40
32366;DHT22;18837;46.832;16.838;2023-06-22T01:41:21;26.70;78.30
32366;DHT22;18837;46.832;16.838;2023-06-22T01:43:48;26.70;78.40
32366;DHT22;18837;46.832;16.838;2023-06-22T01:46:15;26.70;78.20
32366;DHT22;18837;46.832;16.838;2023-06-22T01:48:41;26.70;78.30
32366;DHT22;18837;46.832;16.838;2023-06-22T01:51:07;26.70;78.20
32366;DHT22;18837;46.832;16.838;2023-06-22T01:53:33;26.70;78.50
32366;DHT22;18837;46.832;16.838;2023-06-22T01:55:59;26.60;78.40
32366;DHT22;18837;46.832;16.838;2023-06-22T01:58:27;26.60;78.40
32366;DHT22;18837;46.832;16.838;2023-06-22T02:01:10;26.60;78.40
32366;DHT22;18837;46.832;16.838;2023-06-22T02:03:50;26.60;78.30
32366;DHT22;18837;46.832;16.838;2023-06-22T02:06:25;26.60;78.60
32366;DHT22;18837;46.832;16.838;2023-06-22T02:08:59;26.60;78.80
32366;DHT22;18837;46.832;16.838;2023-06-22T02:11:26;26.50;78.20
32366;DHT22;18837;46.832;16.838;2023-06-22T02:13:57;26.50;78.20
32366;DHT22;18837;46.832;16.838;2023-06-22T02:16:23;26.50;79.20
32366;DHT22;18837;46.832;16.838;2023-06-22T02:18:50;26.50;78.50
32366;DHT22;18837;46.832;16.838;2023-06-22T02:21:17;26.50;78.20
32366;DHT22;18837;46.832;16.838;2023-06-22T02:23:43;26.50;78.30
32366;DHT22;18837;46.832;16.838;2023-06-22T02:26:08;26.50;78.20
32366;DHT22;18837;46.832;16.838;2023-06-22T02:28:34;26.40;78.40
32366;DHT22;18837;46.832;16.838;2023-06-22T02:31:00;26.40;78.40
32366;DHT22;18837;46.832;16.838;2023-06-22T02:33:25;26.40;78.40
32366;DHT22;18837;46.832;16.838;2023-06-22T02:35:52;26.40;78.50
32366;DHT22;18837;46.832;16.838;2023-06-22T02:38:18;26.40;78.30
32366;DHT22;18837;46.832;16.838;2023-06-22T02:40:45;26.40;78.50
32366;DHT22;18837;46.832;16.838;2023-06-22T02:43:10;26.40;78.50
32366;DHT22;18837;46.832;16.838;2023-06-22T02:45:36;26.30;78.40
32366;DHT22;18837;46.832;16.838;2023-06-22T02:48:07;26.30;78.30
32366;DHT22;18837;46.832;16.838;2023-06-22T02:50:33;26.30;78.50
32366;DHT22;18837;46.832;16.838;2023-06-22T02:52:59;26.30;79.50
32366;DHT22;18837;46.832;16.838;2023-06-22T02:55:24;26.30;78.50
32366;DHT22;18837;46.832;16.838;2023-06-22T02:57:50;26.30;78.40
32366;DHT22;18837;46.832;16.838;2023-06-22T03:00:19;26.20;78.40
32366;DHT22;18837;46.832;16.838;2023-06-22T03:02:48;26.20;78.40
32366;DHT22;18837;46.832;16.838;2023-06-22T03:05:14;26.20;78.40
32366;DHT22;18837;46.832;16.838;2023-06-22T03:07:44;26.20;78.50
32366;DHT22;18837;46.832;16.838;2023-06-22T03:10:10;26.20;78.40
32366;DHT22;18837;46.832;16.838;2023-06-22T03:12:38;26.20;78.40
32366;DHT22;18837;46.832;16.838;2023-06-22T03:15:11;26.20;78.50
32366;DHT22;18837;46.832;16.838;2023-06-22T03:17:38;26.20;78.50
32366;DHT22;18837;46.832;16.838;2023-06-22T03:20:06;26.10;78.20
32366;DHT22;18837;46.832;16.838;2023-06-22T03:22:40;26.10;78.80
32366;DHT22;18837;46.832;16.838;2023-06-22T03:25:09;26.10;78.30
32366;DHT22;18837;46.832;16.838;2023-06-22T03:27:41;26.10;78.50
32366;DHT22;18837;46.832;16.838;2023-06-22T03:30:09;26.10;78.30
32366;DHT22;18837;46.832;16.838;2023-06-22T03:32:35;26.10;78.70
32366;DHT22;18837;46.832;16.838;2023-06-22T03:35:01;26.10;78.40
32366;DHT22;18837;46.832;16.838;2023-06-22T03:37:28;26.10;78.80
32366;DHT22;18837;46.832;16.838;2023-06-22T03:39:54;26.10;78.70
32366;DHT22;18837;46.832;16.838;2023-06-22T03:42:20;26.10;78.50
32366;DHT22;18837;46.832;16.838;2023-06-22T03:44:47;26.10;78.70
32366;DHT22;18837;46.832;16.838;2023-06-22T03:47:13;26.00;78.50
32366;DHT22;18837;46.832;16.838;2023-06-22T03:49:39;26.00;78.50
32366;DHT22;18837;46.832;16.838;2023-06-22T03:52:05;26.00;78.50
32366;DHT22;18837;46.832;16.838;2023-06-22T03:54:31;26.00;78.50
32366;DHT22;18837;46.832;16.838;2023-06-22T03:56:59;26.00;78.80
32366;DHT22;18837;46.832;16.838;2023-06-22T03:59:25;26.00;78.80
32366;DHT22;18837;46.832;16.838;2023-06-22T04:01:52;26.00;78.50
32366;DHT22;18837;46.832;16.838;2023-06-22T04:04:18;26.00;78.70
32366;DHT22;18837;46.832;16.838;2023-06-22T04:06:44;26.00;78.70
32366;DHT22;18837;46.832;16.838;2023-06-22T04:09:10;26.00;78.80
32366;DHT22;18837;46.832;16.838;2023-06-22T04:11:36;26.00;78.50
32366;DHT22;18837;46.832;16.838;2023-06-22T04:14:01;26.00;78.40
32366;DHT22;18837;46.832;16.838;2023-06-22T04:16:27;25.90;78.60
32366;DHT22;18837;46.832;16.838;2023-06-22T04:18:53;26.00;78.70
32366;DHT22;18837;46.832;16.838;2023-06-22T04:21:19;26.00;78.70
32366;DHT22;18837;46.832;16.838;2023-06-22T04:23:47;25.90;78.80
32366;DHT22;18837;46.832;16.838;2023-06-22T04:26:13;25.90;78.80
32366;DHT22;18837;46.832;16.838;2023-06-22T04:28:42;25.90;78.70
32366;DHT22;18837;46.832;16.838;2023-06-22T04:31:08;25.90;78.70
32366;DHT22;18837;46.832;16.838;2023-06-22T04:33:34;25.90;78.60
32366;DHT22;18837;46.832;16.838;2023-06-22T04:35:59;25.90;78.60
32366;DHT22;18837;46.832;16.838;2023-06-22T04:38:29;25.90;79.00
32366;DHT22;18837;46.832;16.838;2023-06-22T04:40:59;25.90;78.60
32366;DHT22;18837;46.832;16.838;2023-06-22T04:43:27;25.90;78.50
32366;DHT22;18837;46.832;16.838;2023-06-22T04:45:57;25.90;79.70
32366;DHT22;18837;46.832;16.838;2023-06-22T04:48:29;25.80;78.60
32366;DHT22;18837;46.832;16.838;2023-06-22T04:51:00;25.90;78.70
32366;DHT22;18837;46.832;16.838;2023-06-22T04:53:29;25.80;78.70
32366;DHT22;18837;46.832;16.838;2023-06-22T04:55:55;25.80;78.80
32366;DHT22;18837;46.832;16.838;2023-06-22T04:58:21;25.80;78.60
32366;DHT22;18837;46.832;16.838;2023-06-22T05:00:47;25.80;78.40
32366;DHT22;18837;46.832;16.838;2023-06-22T05:03:13;25.80;78.80
32366;DHT22;18837;46.832;16.838;2023-06-22T05:05:39;25.80;78.50
32366;DHT22;18837;46.832;16.838;2023-06-22T05:08:06;25.80;78.70
32366;DHT22;18837;46.832;16.838;2023-06-22T05:10:33;25.80;78.80
32366;DHT22;18837;46.832;16.838;2023-06-22T05:12:59;25.80;78.80
32366;DHT22;18837;46.832;16.838;2023-06-22T05:15:25;25.80;78.60
32366;DHT22;18837;46.832;16.838;2023-06-22T05:17:53;25.80;78.70
32366;DHT22;18837;46.832;16.838;2023-06-22T05:20:19;25.80;78.60
32366;DHT22;18837;46.832;16.838;2023-06-22T05:22:47;25.80;78.70
32366;DHT22;18837;46.832;16.838;2023-06-22T05:25:13;25.80;78.80
32366;DHT22;18837;46.832;16.838;2023-06-22T05:27:39;25.80;79.70
32366;DHT22;18837;46.832;16.838;2023-06-22T05:30:08;25.80;78.60
32366;DHT22;18837;46.832;16.838;2023-06-22T05:32:35;25.80;78.70
32366;DHT22;18837;46.832;16.838;2023-06-22T05:35:02;25.80;78.70
32366;DHT22;18837;46.832;16.838;2023-06-22T05:37:29;25.80;78.80
32366;DHT22;18837;46.832;16.838;2023-06-22T05:40:01;25.80;78.70
32366;DHT22;18837;46.832;16.838;2023-06-22T05:42:27;25.80;78.80
32366;DHT22;18837;46.832;16.838;2023-06-22T05:44:53;25.80;78.80
32366;DHT22;18837;46.832;16.838;2023-06-22T05:47:19;25.80;78.90
32366;DHT22;18837;46.832;16.838;2023-06-22T05:49:44;25.80;78.70
32366;DHT22;18837;46.832;16.838;2023-06-22T05:52:10;25.80;78.60
32366;DHT22;18837;46.832;16.838;2023-06-22T05:54:37;25.80;78.90
32366;DHT22;18837;46.832;16.838;2023-06-22T05:57:04;25.80;78.60
32366;DHT22;18837;46.832;16.838;2023-06-22T05:59:31;25.80;78.70
32366;DHT22;18837;46.832;16.838;2023-06-22T06:01:57;25.80;78.90
32366;DHT22;18837;46.832;16.838;2023-06-22T06:04:22;25.80;79.00
32366;DHT22;18837;46.832;16.838;2023-06-22T06:06:48;25.80;78.80
32366;DHT22;18837;46.832;16.838;2023-06-22T06:09:14;25.80;79.00
32366;DHT22;18837;46.832;16.838;2023-06-22T06:11:40;25.80;78.90
32366;DHT22;18837;46.832;16.838;2023-06-22T06:14:06;25.80;79.00
32366;DHT22;18837;46.832;16.838;2023-06-22T06:16:31;25.80;79.10
32366;DHT22;18837;46.832;16.838;2023-06-22T06:18:57;25.80;79.00
32366;DHT22;18837;46.832;16.838;2023-06-22T06:21:24;25.70;79.20
32366;DHT22;18837;46.832;16.838;2023-06-22T06:23:50;25.80;78.90
32366;DHT22;18837;46.832;16.838;2023-06-22T06:26:15;25.80;78.90
32366;DHT22;18837;46.832;16.838;2023-06-22T06:28:53;25.80;79.10
32366;DHT22;18837;46.832;16.838;2023-06-22T06:31:20;25.80;79.00
32366;DHT22;18837;46.832;16.838;2023-06-22T06:33:46;25.80;79.10
32366;DHT22;18837;46.832;16.838;2023-06-22T06:36:12;25.80;78.80
32366;DHT22;18837;46.832;16.838;2023-06-22T06:38:37;25.80;79.00
32366;DHT22;18837;46.832;16.838;2023-06-22T06:41:03;25.80;79.20
32366;DHT22;18837;46.832;16.838;2023-06-22T06:43:29;25.80;78.60
32366;DHT22;18837;46.832;16.838;2023-06-22T06:45:54;25.80;78.70
32366;DHT22;18837;46.832;16.838;2023-06-22T06:48:20;25.80;78.80
32366;DHT22;18837;46.832;16.838;2023-06-22T06:50:46;25.80;78.80
32366;DHT22;18837;46.832;16.838;2023-06-22T06:53:12;25.80;78.80
32366;DHT22;18837;46.832;16.838;2023-06-22T06:55:37;25.80;78.80
32366;DHT22;18837;46.832;16.838;2023-06-22T06:58:03;25.80;78.70
32366;DHT22;18837;46.832;16.838;2023-06-22T07:00:33;25.80;78.40
32366;DHT22;18837;46.832;16.838;2023-06-22T07:02:58;25.80;78.60
32366;DHT22;18837;46.832;16.838;2023-06-22T07:05:24;25.80;78.60
32366;DHT22;18837;46.832;16.838;2023-06-22T07:07:50;25.80;78.80
32366;DHT22;18837;46.832;16.838;2023-06-22T07:10:16;25.90;78.60
32366;DHT22;18837;46.832;16.838;2023-06-22T07:12:41;25.90;78.70
32366;DHT22;18837;46.832;16.838;2023-06-22T07:15:09;25.80;78.60
32366;DHT22;18837;46.832;16.838;2023-06-22T07:17:35;25.90;78.80
32366;DHT22;18837;46.832;16.838;2023-06-22T07:20:02;25.90;78.70
32366;DHT22;18837;46.832;16.838;2023-06-22T07:22:35;25.80;78.50
32366;DHT22;18837;46.832;16.838;2023-06-22T07:25:01;25.90;78.70
32366;DHT22;18837;46.832;16.838;2023-06-22T07:27:29;25.90;78.60
32366;DHT22;18837;46.832;16.838;2023-06-22T07:30:00;26.00;78.50
32366;DHT22;18837;46.832;16.838;2023-06-22T07:32:26;26.00;78.60
32366;DHT22;18837;46.832;16.838;2023-06-22T07:34:54;26.00;78.50
32366;DHT22;18837;46.832;16.838;2023-06-22T07:37:20;26.00;78.50
32366;DHT22;18837;46.832;16.838;2023-06-22T07:39:47;26.00;78.50
32366;DHT22;18837;46.832;16.838;2023-06-22T07:42:12;26.10;78.50
32366;DHT22;18837;46.832;16.838;2023-06-22T07:44:44;26.10;78.60
32366;DHT22;18837;46.832;16.838;2023-06-22T07:47:09;26.10;78.50
32366;DHT22;18837;46.832;16.838;2023-06-22T07:49:35;26.10;78.70
32366;DHT22;18837;46.832;16.838;2023-06-22T07:52:01;26.20;78.60
32366;DHT22;18837;46.832;16.838;2023-06-22T07:54:27;26.20;78.60
32366;DHT22;18837;46.832;16.838;2023-06-22T07:56:55;26.20;78.70
32366;DHT22;18837;46.832;16.838;2023-06-22T07:59:20;26.30;78.70
32366;DHT22;18837;46.832;16.838;2023-06-22T08:01:46;26.30;78.50
32366;DHT22;18837;46.832;16.838;2023-06-22T08:04:14;26.40;78.50
32366;DHT22;18837;46.832;16.838;2023-06-22T08:06:40;26.40;78.30
32366;DHT22;18837;46.832;16.838;2023-06-22T08:09:06;26.50;78.40
32366;DHT22;18837;46.832;16.838;2023-06-22T08:11:32;26.50;78.50
32366;DHT22;18837;46.832;16.838;2023-06-22T08:13:59;26.60;78.60
32366;DHT22;18837;46.832;16.838;2023-06-22T08:16:25;26.60;78.70
32366;DHT22;18837;46.832;16.838;2023-06-22T08:18:50;26.70;78.80
32366;DHT22;18837;46.832;16.838;2023-06-22T08:21:16;26.70;78.80
32366;DHT22;18837;46.832;16.838;2023-06-22T08:23:42;26.80;79.00
32366;DHT22;18837;46.832;16.838;2023-06-22T08:26:08;26.80;79.20
32366;DHT22;18837;46.832;16.838;2023-06-22T08:28:33;26.90;79.50
32366;DHT22;18837;46.832;16.838;2023-06-22T08:31:00;26.90;82.00
32366;DHT22;18837;46.832;16.838;2023-06-22T08:33:27;27.00;81.90
32366;DHT22;18837;46.832;16.838;2023-06-22T08:35:55;27.00;80.90
32366;DHT22;18837;46.832;16.838;2023-06-22T08:38:20;27.10;81.00
32366;DHT22;18837;46.832;16.838;2023-06-22T08:40:46;27.10;82.70
32366;DHT22;18837;46.832;16.838;2023-06-22T08:43:12;27.20;83.70
32366;DHT22;18837;46.832;16.838;2023-06-22T08:45:38;27.20;83.70
32366;DHT22;18837;46.832;16.838;2023-06-22T08:48:04;27.30;81.60
32366;DHT22;18837;46.832;16.838;2023-06-22T08:50:30;27.30;80.30
32366;DHT22;18837;46.832;16.838;2023-06-22T08:52:55;27.40;80.40
32366;DHT22;18837;46.832;16.838;2023-06-22T08:55:21;27.40;80.50
32366;DHT22;18837;46.832;16.838;2023-06-22T08:57:47;27.40;80.40
32366;DHT22;18837;46.832;16.838;2023-06-22T09:00:13;27.50;80.00
32366;DHT22;18837;46.832;16.838;2023-06-22T09:02:48;27.60;82.60
32366;DHT22;18837;46.832;16.838;2023-06-22T09:05:14;27.60;82.90
32366;DHT22;18837;46.832;16.838;2023-06-22T09:07:41;27.70;83.40
32366;DHT22;18837;46.832;16.838;2023-06-22T09:10:07;27.80;85.20
32366;DHT22;18837;46.832;16.838;2023-06-22T09:12:33;27.80;85.70
32366;DHT22;18837;46.832;16.838;2023-06-22T09:15:00;27.80;83.80
32366;DHT22;18837;46.832;16.838;2023-06-22T09:17:26;27.90;86.90
32366;DHT22;18837;46.832;16.838;2023-06-22T09:19:52;27.90;87.80
32366;DHT22;18837;46.832;16.838;2023-06-22T09:22:20;28.00;85.70
32366;DHT22;18837;46.832;16.838;2023-06-22T09:24:46;28.10;87.30
32366;DHT22;18837;46.832;16.838;2023-06-22T09:27:12;28.10;85.10
32366;DHT22;18837;46.832;16.838;2023-06-22T09:29:38;28.20;86.20
32366;DHT22;18837;46.832;16.838;2023-06-22T09:32:04;28.20;88.10
32366;DHT22;18837;46.832;16.838;2023-06-22T09:34:30;28.20;85.60
32366;DHT22;18837;46.832;16.838;2023-06-22T09:36:57;28.30;83.70
32366;DHT22;18837;46.832;16.838;2023-06-22T09:39:24;28.30;86.60
32366;DHT22;18837;46.832;16.838;2023-06-22T09:41:49;28.40;85.70
32366;DHT22;18837;46.832;16.838;2023-06-22T09:44:15;28.40;87.80
32366;DHT22;18837;46.832;16.838;2023-06-22T09:46:41;28.50;87.40
32366;DHT22;18837;46.832;16.838;2023-06-22T09:49:07;28.50;86.50
32366;DHT22;18837;46.832;16.838;2023-06-22T09:51:32;28.60;88.20
32366;DHT22;18837;46.832;16.838;2023-06-22T09:53:59;28.70;90.20
32366;DHT22;18837;46.832;16.838;2023-06-22T09:56:26;28.80;90.10
32366;DHT22;18837;46.832;16.838;2023-06-22T09:58:55;28.80;90.30
32366;DHT22;18837;46.832;16.838;2023-06-22T10:01:21;28.90;90.50
32366;DHT22;18837;46.832;16.838;2023-06-22T10:03:47;28.90;90.70
32366;DHT22;18837;46.832;16.838;2023-06-22T10:06:13;29.00;90.80
32366;DHT22;18837;46.832;16.838;2023-06-22T10:08:38;29.00;90.60
32366;DHT22;18837;46.832;16.838;2023-06-22T10:11:06;29.10;90.80
32366;DHT22;18837;46.832;16.838;2023-06-22T10:13:31;29.10;90.10
32366;DHT22;18837;46.832;16.838;2023-06-22T10:15:57;29.10;87.40
32366;DHT22;18837;46.832;16.838;2023-06-22T10:18:23;29.20;87.70
32366;DHT22;18837;46.832;16.838;2023-06-22T10:20:50;29.20;87.40
32366;DHT22;18837;46.832;16.838;2023-06-22T10:23:22;29.20;84.70
32366;DHT22;18837;46.832;16.838;2023-06-22T10:25:48;29.30;88.40
32366;DHT22;18837;46.832;16.838;2023-06-22T10:28:20;29.30;89.30
32366;DHT22;18837;46.832;16.838;2023-06-22T10:30:46;29.40;89.90
32366;DHT22;18837;46.832;16.838;2023-06-22T10:33:12;29.40;85.50
32366;DHT22;18837;46.832;16.838;2023-06-22T10:35:38;29.40;82.60
32366;DHT22;18837;46.832;16.838;2023-06-22T10:38:05;29.40;87.00
32366;DHT22;18837;46.832;16.838;2023-06-22T10:40:31;29.50;90.10
32366;DHT22;18837;46.832;16.838;2023-06-22T10:42:57;29.50;90.00
32366;DHT22;18837;46.832;16.838;2023-06-22T10:45:22;29.60;88.90
32366;DHT22;18837;46.832;16.838;2023-06-22T10:47:54;29.60;88.20
32366;DHT22;18837;46.832;16.838;2023-06-22T10:50:20;29.70;90.60
32366;DHT22;18837;46.832;16.838;2023-06-22T10:52:46;29.70;91.00
32366;DHT22;18837;46.832;16.838;2023-06-22T10:55:12;29.80;90.80
32366;DHT22;18837;46.832;16.838;2023-06-22T10:57:38;29.80;90.60
32366;DHT22;18837;46.832;16.838;2023-06-22T11:00:07;29.90;90.20
32366;DHT22;18837;46.832;16.838;2023-06-22T11:02:49;29.90;89.80
32366;DHT22;18837;46.832;16.838;2023-06-22T11:05:19;29.90;88.20
32366;DHT22;18837;46.832;16.838;2023-06-22T11:07:50;29.90;87.90
32366;DHT22;18837;46.832;16.838;2023-06-22T11:10:16;30.00;89.80
32366;DHT22;18837;46.832;16.838;2023-06-22T11:12:42;30.00;89.40
32366;DHT22;18837;46.832;16.838;2023-06-22T11:15:08;30.10;89.80
32366;DHT22;18837;46.832;16.838;2023-06-22T11:17:35;30.10;89.70
32366;DHT22;18837;46.832;16.838;2023-06-22T11:20:01;30.10;88.80
32366;DHT22;18837;46.832;16.838;2023-06-22T11:22:34;30.10;88.30
32366;DHT22;18837;46.832;16.838;2023-06-22T11:25:01;30.20;89.20
32366;DHT22;18837;46.832;16.838;2023-06-22T11:27:26;30.20;88.80
32366;DHT22;18837;46.832;16.838;2023-06-22T11:29:52;30.30;88.00
32366;DHT22;18837;46.832;16.838;2023-06-22T11:32:18;30.30;87.60
32366;DHT22;18837;46.832;16.838;2023-06-22T11:34:44;30.30;84.10
32366;DHT22;18837;46.832;16.838;2023-06-22T11:37:11;30.30;86.30
32366;DHT22;18837;46.832;16.838;2023-06-22T11:39:49;30.40;87.70
32366;DHT22;18837;46.832;16.838;2023-06-22T11:42:18;30.40;87.80
32366;DHT22;18837;46.832;16.838;2023-06-22T11:44:46;30.40;87.80
32366;DHT22;18837;46.832;16.838;2023-06-22T11:47:12;30.40;82.10
32366;DHT22;18837;46.832;16.838;2023-06-22T11:49:38;30.50;82.70
32366;DHT22;18837;46.832;16.838;2023-06-22T11:52:03;30.50;86.20
32366;DHT22;18837;46.832;16.838;2023-06-22T11:54:29;30.50;88.00
32366;DHT22;18837;46.832;16.838;2023-06-22T11:57:00;30.60;86.70
32366;DHT22;18837;46.832;16.838;2023-06-22T11:59:26;30.60;82.40
32366;DHT22;18837;46.832;16.838;2023-06-22T12:01:51;30.60;83.50
32366;DHT22;18837;46.832;16.838;2023-06-22T12:04:17;30.60;86.70
32366;DHT22;18837;46.832;16.838;2023-06-22T12:06:43;30.60;88.90
32366;DHT22;18837;46.832;16.838;2023-06-22T12:09:09;30.70;87.10
32366;DHT22;18837;46.832;16.838;2023-06-22T12:11:54;30.70;84.00
32366;DHT22;18837;46.832;16.838;2023-06-22T12:17:38;30.70;86.60
32366;DHT22;18837;46.832;16.838;2023-06-22T12:20:05;30.70;86.70
32366;DHT22;18837;46.832;16.838;2023-06-22T12:22:34;30.70;86.40
32366;DHT22;18837;46.832;16.838;2023-06-22T12:25:01;30.70;83.40
32366;DHT22;18837;46.832;16.838;2023-06-22T12:27:27;30.80;83.90
32366;DHT22;18837;46.832;16.838;2023-06-22T12:30:08;30.80;85.60
32366;DHT22;18837;46.832;16.838;2023-06-22T12:32:34;30.80;85.10
32366;DHT22;18837;46.832;16.838;2023-06-22T12:35:00;30.80;86.40
32366;DHT22;18837;46.832;16.838;2023-06-22T12:37:26;30.90;86.40
32366;DHT22;18837;46.832;16.838;2023-06-22T12:39:53;30.90;85.80
32366;DHT22;18837;46.832;16.838;2023-06-22T12:42:18;30.90;84.70
32366;DHT22;18837;46.832;16.838;2023-06-22T12:44:44;30.90;85.60
32366;DHT22;18837;46.832;16.838;2023-06-22T12:47:28;30.90;85.80
32366;DHT22;18837;46.832;16.838;2023-06-22T12:49:55;30.90;85.50
32366;DHT22;18837;46.832;16.838;2023-06-22T12:52:21;30.90;84.50
32366;DHT22;18837;46.832;16.838;2023-06-22T12:54:47;30.90;83.60
32366;DHT22;18837;46.832;16.838;2023-06-22T12:57:14;30.90;82.70
32366;DHT22;18837;46.832;16.838;2023-06-22T12:59:40;30.90;84.10
32366;DHT22;18837;46.832;16.838;2023-06-22T13:02:06;30.90;85.10
32366;DHT22;18837;46.832;16.838;2023-06-22T13:04:40;30.90;84.40
32366;DHT22;18837;46.832;16.838;2023-06-22T13:07:07;31.00;85.70
32366;DHT22;18837;46.832;16.838;2023-06-22T13:09:32;31.10;85.70
32366;DHT22;18837;46.832;16.838;2023-06-22T13:12:00;31.10;83.00
32366;DHT22;18837;46.832;16.838;2023-06-22T13:14:26;31.10;83.70
32366;DHT22;18837;46.832;16.838;2023-06-22T13:16:52;31.10;82.80
32366;DHT22;18837;46.832;16.838;2023-06-22T13:19:18;31.20;81.60
32366;DHT22;18837;46.832;16.838;2023-06-22T13:21:50;31.20;83.30
32366;DHT22;18837;46.832;16.838;2023-06-22T13:24:18;31.20;83.00
32366;DHT22;18837;46.832;16.838;2023-06-22T13:26:44;31.20;83.10
32366;DHT22;18837;46.832;16.838;2023-06-22T13:29:10;31.20;82.00
32366;DHT22;18837;46.832;16.838;2023-06-22T13:31:35;31.30;80.90
32366;DHT22;18837;46.832;16.838;2023-06-22T13:34:02;31.30;81.80
32366;DHT22;18837;46.832;16.838;2023-06-22T13:36:28;31.30;82.60
32366;DHT22;18837;46.832;16.838;2023-06-22T13:38:56;31.30;82.60
32366;DHT22;18837;46.832;16.838;2023-06-22T13:41:26;31.40;82.40
32366;DHT22;18837;46.832;16.838;2023-06-22T13:43:51;31.40;80.20
32366;DHT22;18837;46.832;16.838;2023-06-22T13:46:17;31.40;80.60
32366;DHT22;18837;46.832;16.838;2023-06-22T13:48:44;31.40;82.10
32366;DHT22;18837;46.832;16.838;2023-06-22T13:51:10;31.50;83.00
32366;DHT22;18837;46.832;16.838;2023-06-22T13:53:37;31.50;82.50
32366;DHT22;18837;46.832;16.838;2023-06-22T13:56:18;31.50;82.00
32366;DHT22;18837;46.832;16.838;2023-06-22T13:58:56;31.60;82.00
32366;DHT22;18837;46.832;16.838;2023-06-22T14:01:22;31.60;81.10
32366;DHT22;18837;46.832;16.838;2023-06-22T14:03:48;31.60;81.10
32366;DHT22;18837;46.832;16.838;2023-06-22T14:06:14;31.60;81.00
32366;DHT22;18837;46.832;16.838;2023-06-22T14:08:39;31.60;79.70
32366;DHT22;18837;46.832;16.838;2023-06-22T14:11:05;31.70;79.80
32366;DHT22;18837;46.832;16.838;2023-06-22T14:13:46;31.70;79.80
32366;DHT22;18837;46.832;16.838;2023-06-22T14:16:12;31.70;79.50
32366;DHT22;18837;46.832;16.838;2023-06-22T14:18:38;31.70;79.30
32366;DHT22;18837;46.832;16.838;2023-06-22T14:21:04;31.70;78.90
32366;DHT22;18837;46.832;16.838;2023-06-22T14:23:30;31.80;79.00
32366;DHT22;18837;46.832;16.838;2023-06-22T14:25:55;31.80;78.70
32366;DHT22;18837;46.832;16.838;2023-06-22T14:28:21;31.80;78.80
32366;DHT22;18837;46.832;16.838;2023-06-22T14:31:13;31.80;78.30
32366;DHT22;18837;46.832;16.838;2023-06-22T14:33:51;31.80;78.40
32366;DHT22;18837;46.832;16.838;2023-06-22T14:36:17;31.90;78.10
32366;DHT22;18837;46.832;16.838;2023-06-22T14:38:43;31.90;77.10
32366;DHT22;18837;46.832;16.838;2023-06-22T14:41:09;31.90;77.90
32366;DHT22;18837;46.832;16.838;2023-06-22T14:43:35;31.90;77.60
32366;DHT22;18837;46.832;16.838;2023-06-22T14:46:01;31.80;77.50
32366;DHT22;18837;46.832;16.838;2023-06-22T14:48:33;31.90;78.20
32366;DHT22;18837;46.832;16.838;2023-06-22T14:50:58;31.90;78.10
32366;DHT22;18837;46.832;16.838;2023-06-22T14:53:25;31.90;77.60
32366;DHT22;18837;46.832;16.838;2023-06-22T14:55:51;31.90;77.30
32366;DHT22;18837;46.832;16.838;2023-06-22T14:58:19;31.80;77.20
32366;DHT22;18837;46.832;16.838;2023-06-22T15:00:44;31.90;77.10
32366;DHT22;18837;46.832;16.838;2023-06-22T15:03:11;31.80;77.70
32366;DHT22;18837;46.832;16.838;2023-06-22T15:06:07;31.90;77.10
32366;DHT22;18837;46.832;16.838;2023-06-22T15:08:42;31.90;76.90
32366;DHT22;18837;46.832;16.838;2023-06-22T15:11:08;31.90;76.50
32366;DHT22;18837;46.832;16.838;2023-06-22T15:13:34;31.90;76.50
32366;DHT22;18837;46.832;16.838;2023-06-22T15:16:01;31.90;76.30
32366;DHT22;18837;46.832;16.838;2023-06-22T15:18:28;31.90;76.40
32366;DHT22;18837;46.832;16.838;2023-06-22T15:20:54;31.90;76.00
32366;DHT22;18837;46.832;16.838;2023-06-22T15:23:30;31.90;75.70
32366;DHT22;18837;46.832;16.838;2023-06-22T15:25:57;31.90;76.20
32366;DHT22;18837;46.832;16.838;2023-06-22T15:28:23;31.80;75.80